sensor_id;sensor_type;location;lat;lon;timestamp;P1;durP1;ratioP1;P2;durP2;ratioP2
4986;SDS011;12674;51.500;7.552;2022-11-18T00:01:44;6.40;;;1.63;;
4986;SDS011;12674;51.500;7.552;2022-11-18T00:03:47;5.10;;;1.70;;
4986;SDS011;12674;51.500;7.552;2022-11-18T00:05:53;5.03;;;1.50;;
4986;SDS011;12674;51.500;7.552;2022-11-18T00:07:56;5.37;;;1.90;;
4986;SDS011;12674;51.500;7.552;2022-11-18T00:09:59;5.20;;;1.93;;
4986;SDS011;12674;51.500;7.552;2022-11-18T00:12:02;3.23;;;1.40;;
4986;SDS011;12674;51.500;7.552;2022-11-18T00:14:23;5.33;;;1.57;;
4986;SDS011;12674;51.500;7.552;2022-11-18T00:16:27;4.37;;;1.47;;
4986;SDS011;12674;51.500;7.552;2022-11-18T00:18:32;2.83;;;1.40;;
4986;SDS011;12674;51.500;7.552;2022-11-18T00:20:35;5.20;;;1.80;;
4986;SDS011;12674;51.500;7.552;2022-11-18T00:22:39;2.23;;;1.40;;
4986;SDS011;12674;51.500;7.552;2022-11-18T00:24:42;5.90;;;1.80;;
4986;SDS011;12674;51.500;7.552;2022-11-18T00:26:45;7.10;;;1.80;;
4986;SDS011;12674;51.500;7.552;2022-11-18T00:28:48;5.30;;;1.27;;
4986;SDS011;12674;51.500;7.552;2022-11-18T00:30:51;5.57;;;1.80;;
4986;SDS011;12674;51.500;7.552;2022-11-18T00:32:54;13.13;;;1.90;;
4986;SDS011;12674;51.500;7.552;2022-11-18T00:34:59;4.53;;;1.20;;
4986;SDS011;12674;51.500;7.552;2022-11-18T00:37:02;6.90;;;1.60;;
4986;SDS011;12674;51.500;7.552;2022-11-18T00:39:04;6.90;;;1.60;;
4986;SDS011;12674;51.500;7.552;2022-11-18T00:41:08;7.20;;;1.87;;
4986;SDS011;12674;51.500;7.552;2022-11-18T00:43:12;7.00;;;1.70;;
4986;SDS011;12674;51.500;7.552;2022-11-18T00:45:14;10.17;;;1.97;;
4986;SDS011;12674;51.500;7.552;2022-11-18T00:47:17;4.07;;;1.50;;
4986;SDS011;12674;51.500;7.552;2022-11-18T00:49:20;8.80;;;2.20;;
4986;SDS011;12674;51.500;7.552;2022-11-18T00:51:25;7.60;;;1.90;;
4986;SDS011;12674;51.500;7.552;2022-11-18T00:53:28;4.90;;;1.33;;
4986;SDS011;12674;51.500;7.552;2022-11-18T00:55:31;4.60;;;1.60;;
4986;SDS011;12674;51.500;7.552;2022-11-18T00:57:34;7.83;;;1.93;;
4986;SDS011;12674;51.500;7.552;2022-11-18T00:59:37;5.20;;;1.57;;
4986;SDS011;12674;51.500;7.552;2022-11-18T01:01:39;5.33;;;1.87;;
4986;SDS011;12674;51.500;7.552;2022-11-18T01:03:43;6.27;;;1.67;;
4986;SDS011;12674;51.500;7.552;2022-11-18T01:05:46;4.73;;;1.63;;
4986;SDS011;12674;51.500;7.552;2022-11-18T01:07:50;4.67;;;2.10;;
4986;SDS011;12674;51.500;7.552;2022-11-18T01:09:53;9.17;;;2.50;;
4986;SDS011;12674;51.500;7.552;2022-11-18T01:11:57;9.23;;;2.47;;
4986;SDS011;12674;51.500;7.552;2022-11-18T01:14:18;7.53;;;2.27;;
4986;SDS011;12674;51.500;7.552;2022-11-18T01:16:22;8.50;;;2.67;;
4986;SDS011;12674;51.500;7.552;2022-11-18T01:18:27;7.97;;;2.50;;
4986;SDS011;12674;51.500;7.552;2022-11-18T01:20:32;6.10;;;2.07;;
4986;SDS011;12674;51.500;7.552;2022-11-18T01:22:35;3.73;;;1.80;;
4986;SDS011;12674;51.500;7.552;2022-11-18T01:24:39;6.53;;;1.80;;
4986;SDS011;12674;51.500;7.552;2022-11-18T01:26:42;3.43;;;1.57;;
4986;SDS011;12674;51.500;7.552;2022-11-18T01:28:45;4.07;;;1.30;;
4986;SDS011;12674;51.500;7.552;2022-11-18T01:30:48;5.40;;;1.33;;
4986;SDS011;12674;51.500;7.552;2022-11-18T01:32:51;6.83;;;1.37;;
4986;SDS011;12674;51.500;7.552;2022-11-18T01:34:54;8.80;;;1.60;;
4986;SDS011;12674;51.500;7.552;2022-11-18T01:36:57;3.90;;;1.83;;
4986;SDS011;12674;51.500;7.552;2022-11-18T01:39:00;3.33;;;1.57;;
4986;SDS011;12674;51.500;7.552;2022-11-18T01:41:04;6.23;;;1.77;;
4986;SDS011;12674;51.500;7.552;2022-11-18T01:43:08;4.73;;;2.17;;
4986;SDS011;12674;51.500;7.552;2022-11-18T01:45:20;7.97;;;1.67;;
4986;SDS011;12674;51.500;7.552;2022-11-18T01:47:30;6.60;;;1.87;;
4986;SDS011;12674;51.500;7.552;2022-11-18T01:49:34;4.80;;;1.53;;
4986;SDS011;12674;51.500;7.552;2022-11-18T01:51:38;4.83;;;1.70;;
4986;SDS011;12674;51.500;7.552;2022-11-18T01:53:47;6.07;;;1.93;;
4986;SDS011;12674;51.500;7.552;2022-11-18T01:55:52;3.53;;;1.40;;
4986;SDS011;12674;51.500;7.552;2022-11-18T01:58:00;4.10;;;1.57;;
4986;SDS011;12674;51.500;7.552;2022-11-18T02:00:09;4.50;;;1.63;;
4986;SDS011;12674;51.500;7.552;2022-11-18T02:02:13;4.27;;;1.43;;
4986;SDS011;12674;51.500;7.552;2022-11-18T02:04:16;5.73;;;1.67;;
4986;SDS011;12674;51.500;7.552;2022-11-18T02:06:19;5.30;;;1.83;;
4986;SDS011;12674;51.500;7.552;2022-11-18T02:08:22;9.70;;;1.60;;
4986;SDS011;12674;51.500;7.552;2022-11-18T02:10:25;9.13;;;2.10;;
4986;SDS011;12674;51.500;7.552;2022-11-18T02:12:28;6.30;;;1.80;;
4986;SDS011;12674;51.500;7.552;2022-11-18T02:14:33;7.23;;;2.17;;
4986;SDS011;12674;51.500;7.552;2022-11-18T02:16:42;5.63;;;1.67;;
4986;SDS011;12674;51.500;7.552;2022-11-18T02:18:51;7.77;;;1.80;;
4986;SDS011;12674;51.500;7.552;2022-11-18T02:20:59;5.63;;;1.47;;
4986;SDS011;12674;51.500;7.552;2022-11-18T02:23:20;5.77;;;1.90;;
4986;SDS011;12674;51.500;7.552;2022-11-18T02:25:52;3.10;;;1.33;;
4986;SDS011;12674;51.500;7.552;2022-11-18T02:28:19;6.00;;;1.70;;
4986;SDS011;12674;51.500;7.552;2022-11-18T02:30:27;7.97;;;1.90;;
4986;SDS011;12674;51.500;7.552;2022-11-18T02:32:34;4.50;;;1.67;;
4986;SDS011;12674;51.500;7.552;2022-11-18T02:34:42;2.10;;;1.40;;
4986;SDS011;12674;51.500;7.552;2022-11-18T02:36:51;7.93;;;1.40;;
4986;SDS011;12674;51.500;7.552;2022-11-18T02:38:58;10.73;;;2.63;;
4986;SDS011;12674;51.500;7.552;2022-11-18T02:41:05;6.90;;;1.73;;
4986;SDS011;12674;51.500;7.552;2022-11-18T02:43:11;6.53;;;1.43;;
4986;SDS011;12674;51.500;7.552;2022-11-18T02:45:18;5.00;;;1.50;;
4986;SDS011;12674;51.500;7.552;2022-11-18T02:47:24;9.27;;;2.00;;
4986;SDS011;12674;51.500;7.552;2022-11-18T02:49:30;3.97;;;1.80;;
4986;SDS011;12674;51.500;7.552;2022-11-18T02:51:36;7.50;;;2.00;;
4986;SDS011;12674;51.500;7.552;2022-11-18T02:53:39;6.03;;;1.93;;
4986;SDS011;12674;51.500;7.552;2022-11-18T02:55:43;6.37;;;1.90;;
4986;SDS011;12674;51.500;7.552;2022-11-18T02:57:46;4.23;;;1.60;;
4986;SDS011;12674;51.500;7.552;2022-11-18T02:59:50;12.30;;;1.93;;
4986;SDS011;12674;51.500;7.552;2022-11-18T03:01:52;5.30;;;2.00;;
4986;SDS011;12674;51.500;7.552;2022-11-18T03:03:57;5.53;;;1.93;;
4986;SDS011;12674;51.500;7.552;2022-11-18T03:06:04;6.40;;;1.77;;
4986;SDS011;12674;51.500;7.552;2022-11-18T03:08:11;7.60;;;2.03;;
4986;SDS011;12674;51.500;7.552;2022-11-18T03:10:17;7.77;;;1.67;;
4986;SDS011;12674;51.500;7.552;2022-11-18T03:12:23;8.03;;;3.43;;
4986;SDS011;12674;51.500;7.552;2022-11-18T03:14:35;2.63;;;1.33;;
4986;SDS011;12674;51.500;7.552;2022-11-18T03:16:43;8.37;;;1.70;;
4986;SDS011;12674;51.500;7.552;2022-11-18T03:18:49;5.43;;;2.03;;
4986;SDS011;12674;51.500;7.552;2022-11-18T03:20:57;2.83;;;1.50;;
4986;SDS011;12674;51.500;7.552;2022-11-18T03:23:05;8.33;;;2.37;;
4986;SDS011;12674;51.500;7.552;2022-11-18T03:25:11;6.97;;;1.87;;
4986;SDS011;12674;51.500;7.552;2022-11-18T03:27:17;9.20;;;2.07;;
4986;SDS011;12674;51.500;7.552;2022-11-18T03:29:24;9.77;;;1.83;;
4986;SDS011;12674;51.500;7.552;2022-11-18T03:31:31;7.40;;;2.23;;
4986;SDS011;12674;51.500;7.552;2022-11-18T03:33:37;8.63;;;2.40;;
4986;SDS011;12674;51.500;7.552;2022-11-18T03:35:44;7.33;;;2.43;;
4986;SDS011;12674;51.500;7.552;2022-11-18T03:37:50;9.77;;;2.63;;
4986;SDS011;12674;51.500;7.552;2022-11-18T03:39:56;4.00;;;2.10;;
4986;SDS011;12674;51.500;7.552;2022-11-18T03:42:01;4.70;;;1.87;;
4986;SDS011;12674;51.500;7.552;2022-11-18T03:44:09;8.67;;;1.90;;
4986;SDS011;12674;51.500;7.552;2022-11-18T03:46:14;11.27;;;2.43;;
4986;SDS011;12674;51.500;7.552;2022-11-18T03:48:19;6.30;;;1.87;;
4986;SDS011;12674;51.500;7.552;2022-11-18T03:50:25;4.80;;;1.83;;
4986;SDS011;12674;51.500;7.552;2022-11-18T03:52:31;6.73;;;2.10;;
4986;SDS011;12674;51.500;7.552;2022-11-18T03:54:36;5.40;;;1.67;;
4986;SDS011;12674;51.500;7.552;2022-11-18T03:56:41;6.27;;;1.70;;
4986;SDS011;12674;51.500;7.552;2022-11-18T03:58:46;9.27;;;1.90;;
4986;SDS011;12674;51.500;7.552;2022-11-18T04:00:53;8.37;;;2.13;;
4986;SDS011;12674;51.500;7.552;2022-11-18T04:02:58;9.73;;;2.43;;
4986;SDS011;12674;51.500;7.552;2022-11-18T04:05:02;7.03;;;2.00;;
4986;SDS011;12674;51.500;7.552;2022-11-18T04:07:07;6.00;;;1.83;;
4986;SDS011;12674;51.500;7.552;2022-11-18T04:09:14;6.40;;;2.20;;
4986;SDS011;12674;51.500;7.552;2022-11-18T04:11:22;6.93;;;2.00;;
4986;SDS011;12674;51.500;7.552;2022-11-18T04:13:43;7.23;;;2.03;;
4986;SDS011;12674;51.500;7.552;2022-11-18T04:15:46;4.23;;;2.30;;
4986;SDS011;12674;51.500;7.552;2022-11-18T04:17:49;9.30;;;2.50;;
4986;SDS011;12674;51.500;7.552;2022-11-18T04:19:52;3.50;;;1.77;;
4986;SDS011;12674;51.500;7.552;2022-11-18T04:21:56;5.33;;;2.03;;
4986;SDS011;12674;51.500;7.552;2022-11-18T04:23:58;6.53;;;2.50;;
4986;SDS011;12674;51.500;7.552;2022-11-18T04:26:01;6.20;;;1.97;;
4986;SDS011;12674;51.500;7.552;2022-11-18T04:28:05;10.03;;;2.83;;
4986;SDS011;12674;51.500;7.552;2022-11-18T04:30:09;8.53;;;2.37;;
4986;SDS011;12674;51.500;7.552;2022-11-18T04:32:12;10.73;;;2.27;;
4986;SDS011;12674;51.500;7.552;2022-11-18T04:34:15;12.13;;;2.60;;
4986;SDS011;12674;51.500;7.552;2022-11-18T04:36:18;3.73;;;1.67;;
4986;SDS011;12674;51.500;7.552;2022-11-18T04:38:21;9.43;;;2.30;;
4986;SDS011;12674;51.500;7.552;2022-11-18T04:40:24;7.67;;;1.70;;
4986;SDS011;12674;51.500;7.552;2022-11-18T04:42:27;4.90;;;1.90;;
4986;SDS011;12674;51.500;7.552;2022-11-18T04:44:32;7.90;;;2.27;;
4986;SDS011;12674;51.500;7.552;2022-11-18T04:46:36;7.80;;;2.10;;
4986;SDS011;12674;51.500;7.552;2022-11-18T04:48:38;9.30;;;2.20;;
4986;SDS011;12674;51.500;7.552;2022-11-18T04:50:41;3.50;;;2.20;;
4986;SDS011;12674;51.500;7.552;2022-11-18T04:52:44;6.37;;;2.30;;
4986;SDS011;12674;51.500;7.552;2022-11-18T04:54:47;6.47;;;2.13;;
4986;SDS011;12674;51.500;7.552;2022-11-18T04:56:50;9.40;;;2.10;;
4986;SDS011;12674;51.500;7.552;2022-11-18T04:58:53;5.87;;;2.20;;
4986;SDS011;12674;51.500;7.552;2022-11-18T05:00:58;4.00;;;2.40;;
4986;SDS011;12674;51.500;7.552;2022-11-18T05:03:01;6.13;;;2.23;;
4986;SDS011;12674;51.500;7.552;2022-11-18T05:05:04;9.57;;;2.67;;
4986;SDS011;12674;51.500;7.552;2022-11-18T05:07:07;2.93;;;2.00;;
4986;SDS011;12674;51.500;7.552;2022-11-18T05:09:14;6.60;;;2.03;;
4986;SDS011;12674;51.500;7.552;2022-11-18T05:11:18;20.87;;;2.77;;
4986;SDS011;12674;51.500;7.552;2022-11-18T05:13:38;7.67;;;2.17;;
4986;SDS011;12674;51.500;7.552;2022-11-18T05:15:41;10.50;;;2.83;;
4986;SDS011;12674;51.500;7.552;2022-11-18T05:17:46;11.17;;;2.23;;
4986;SDS011;12674;51.500;7.552;2022-11-18T05:19:49;7.03;;;2.03;;
4986;SDS011;12674;51.500;7.552;2022-11-18T05:21:52;6.23;;;1.67;;
4986;SDS011;12674;51.500;7.552;2022-11-18T05:23:55;3.30;;;1.67;;
4986;SDS011;12674;51.500;7.552;2022-11-18T05:26:01;4.30;;;1.87;;
4986;SDS011;12674;51.500;7.552;2022-11-18T05:28:04;10.10;;;2.10;;
4986;SDS011;12674;51.500;7.552;2022-11-18T05:30:09;1.60;;;1.50;;
4986;SDS011;12674;51.500;7.552;2022-11-18T05:32:13;10.63;;;2.23;;
4986;SDS011;12674;51.500;7.552;2022-11-18T05:34:18;7.50;;;2.17;;
4986;SDS011;12674;51.500;7.552;2022-11-18T05:36:21;11.27;;;2.10;;
4986;SDS011;12674;51.500;7.552;2022-11-18T05:38:24;5.70;;;1.93;;
4986;SDS011;12674;51.500;7.552;2022-11-18T05:40:27;5.60;;;1.90;;
4986;SDS011;12674;51.500;7.552;2022-11-18T05:42:30;7.53;;;1.80;;
4986;SDS011;12674;51.500;7.552;2022-11-18T05:44:51;5.13;;;2.03;;
4986;SDS011;12674;51.500;7.552;2022-11-18T05:46:58;3.90;;;1.60;;
4986;SDS011;12674;51.500;7.552;2022-11-18T05:49:01;3.43;;;1.87;;
4986;SDS011;12674;51.500;7.552;2022-11-18T05:51:06;4.90;;;1.70;;
4986;SDS011;12674;51.500;7.552;2022-11-18T05:53:09;4.70;;;1.80;;
4986;SDS011;12674;51.500;7.552;2022-11-18T05:55:12;8.30;;;2.00;;
4986;SDS011;12674;51.500;7.552;2022-11-18T05:57:15;5.50;;;2.40;;
4986;SDS011;12674;51.500;7.552;2022-11-18T05:59:19;7.30;;;2.13;;
4986;SDS011;12674;51.500;7.552;2022-11-18T06:01:22;5.47;;;2.20;;
4986;SDS011;12674;51.500;7.552;2022-11-18T06:03:28;5.10;;;2.10;;
4986;SDS011;12674;51.500;7.552;2022-11-18T06:05:32;5.83;;;1.87;;
4986;SDS011;12674;51.500;7.552;2022-11-18T06:07:37;5.87;;;1.93;;
4986;SDS011;12674;51.500;7.552;2022-11-18T06:09:43;2.80;;;1.60;;
4986;SDS011;12674;51.500;7.552;2022-11-18T06:11:47;7.00;;;1.90;;
4986;SDS011;12674;51.500;7.552;2022-11-18T06:13:53;8.27;;;2.00;;
4986;SDS011;12674;51.500;7.552;2022-11-18T06:15:57;1.97;;;1.77;;
4986;SDS011;12674;51.500;7.552;2022-11-18T06:18:01;11.73;;;2.67;;
4986;SDS011;12674;51.500;7.552;2022-11-18T06:20:05;9.60;;;3.00;;
4986;SDS011;12674;51.500;7.552;2022-11-18T06:22:09;8.00;;;2.63;;
4986;SDS011;12674;51.500;7.552;2022-11-18T06:24:14;10.80;;;3.20;;
4986;SDS011;12674;51.500;7.552;2022-11-18T06:26:17;5.53;;;2.63;;
4986;SDS011;12674;51.500;7.552;2022-11-18T06:28:20;6.20;;;2.80;;
4986;SDS011;12674;51.500;7.552;2022-11-18T06:30:24;5.07;;;2.20;;
4986;SDS011;12674;51.500;7.552;2022-11-18T06:32:27;7.90;;;2.10;;
4986;SDS011;12674;51.500;7.552;2022-11-18T06:34:30;5.67;;;2.80;;
4986;SDS011;12674;51.500;7.552;2022-11-18T06:36:41;3.90;;;1.97;;
4986;SDS011;12674;51.500;7.552;2022-11-18T06:38:44;4.70;;;2.20;;
4986;SDS011;12674;51.500;7.552;2022-11-18T06:40:48;5.20;;;2.53;;
4986;SDS011;12674;51.500;7.552;2022-11-18T06:42:51;5.63;;;2.57;;
4986;SDS011;12674;51.500;7.552;2022-11-18T06:45:08;7.70;;;1.90;;
4986;SDS011;12674;51.500;7.552;2022-11-18T06:47:12;6.40;;;2.53;;
4986;SDS011;12674;51.500;7.552;2022-11-18T06:49:14;5.90;;;2.40;;
4986;SDS011;12674;51.500;7.552;2022-11-18T06:51:17;4.23;;;2.47;;
4986;SDS011;12674;51.500;7.552;2022-11-18T06:53:21;5.07;;;2.70;;
4986;SDS011;12674;51.500;7.552;2022-11-18T06:55:23;4.70;;;2.30;;
4986;SDS011;12674;51.500;7.552;2022-11-18T06:57:28;2.17;;;2.00;;
4986;SDS011;12674;51.500;7.552;2022-11-18T06:59:31;3.97;;;2.13;;
4986;SDS011;12674;51.500;7.552;2022-11-18T07:01:34;5.70;;;2.93;;
4986;SDS011;12674;51.500;7.552;2022-11-18T07:03:38;5.67;;;3.60;;
4986;SDS011;12674;51.500;7.552;2022-11-18T07:05:41;5.17;;;2.40;;
4986;SDS011;12674;51.500;7.552;2022-11-18T07:07:44;2.77;;;1.93;;
4986;SDS011;12674;51.500;7.552;2022-11-18T07:09:47;12.67;;;2.90;;
4986;SDS011;12674;51.500;7.552;2022-11-18T07:11:50;3.57;;;2.30;;
4986;SDS011;12674;51.500;7.552;2022-11-18T07:13:54;4.50;;;2.80;;
4986;SDS011;12674;51.500;7.552;2022-11-18T07:16:00;3.37;;;2.40;;
4986;SDS011;12674;51.500;7.552;2022-11-18T07:18:05;4.27;;;2.63;;
4986;SDS011;12674;51.500;7.552;2022-11-18T07:20:09;3.93;;;2.97;;
4986;SDS011;12674;51.500;7.552;2022-11-18T07:22:12;7.73;;;2.90;;
4986;SDS011;12674;51.500;7.552;2022-11-18T07:24:15;5.63;;;2.40;;
4986;SDS011;12674;51.500;7.552;2022-11-18T07:26:18;2.97;;;2.40;;
4986;SDS011;12674;51.500;7.552;2022-11-18T07:28:22;4.27;;;2.37;;
4986;SDS011;12674;51.500;7.552;2022-11-18T07:30:27;9.93;;;2.57;;
4986;SDS011;12674;51.500;7.552;2022-11-18T07:32:31;14.13;;;2.20;;
4986;SDS011;12674;51.500;7.552;2022-11-18T07:34:34;11.13;;;2.60;;
4986;SDS011;12674;51.500;7.552;2022-11-18T07:36:37;5.43;;;2.80;;
4986;SDS011;12674;51.500;7.552;2022-11-18T07:38:40;5.93;;;3.40;;
4986;SDS011;12674;51.500;7.552;2022-11-18T07:40:43;10.90;;;3.40;;
4986;SDS011;12674;51.500;7.552;2022-11-18T07:42:46;5.67;;;3.00;;
4986;SDS011;12674;51.500;7.552;2022-11-18T07:44:58;6.93;;;2.67;;
4986;SDS011;12674;51.500;7.552;2022-11-18T07:47:02;6.07;;;2.40;;
4986;SDS011;12674;51.500;7.552;2022-11-18T07:49:05;6.13;;;2.50;;
4986;SDS011;12674;51.500;7.552;2022-11-18T07:51:10;3.37;;;2.43;;
4986;SDS011;12674;51.500;7.552;2022-11-18T07:53:13;9.80;;;2.87;;
4986;SDS011;12674;51.500;7.552;2022-11-18T07:55:16;7.90;;;3.10;;
4986;SDS011;12674;51.500;7.552;2022-11-18T07:57:19;5.93;;;2.73;;
4986;SDS011;12674;51.500;7.552;2022-11-18T07:59:22;16.63;;;3.43;;
4986;SDS011;12674;51.500;7.552;2022-11-18T08:01:25;7.57;;;2.73;;
4986;SDS011;12674;51.500;7.552;2022-11-18T08:03:31;5.67;;;3.10;;
4986;SDS011;12674;51.500;7.552;2022-11-18T08:05:34;3.90;;;2.50;;
4986;SDS011;12674;51.500;7.552;2022-11-18T08:07:37;5.13;;;2.93;;
4986;SDS011;12674;51.500;7.552;2022-11-18T08:09:40;7.83;;;3.33;;
4986;SDS011;12674;51.500;7.552;2022-11-18T08:11:43;6.70;;;2.27;;
4986;SDS011;12674;51.500;7.552;2022-11-18T08:13:46;4.90;;;3.23;;
4986;SDS011;12674;51.500;7.552;2022-11-18T08:15:49;7.47;;;2.70;;
4986;SDS011;12674;51.500;7.552;2022-11-18T08:17:52;7.33;;;3.47;;
4986;SDS011;12674;51.500;7.552;2022-11-18T08:19:56;4.37;;;3.10;;
4986;SDS011;12674;51.500;7.552;2022-11-18T08:21:59;6.37;;;3.20;;
4986;SDS011;12674;51.500;7.552;2022-11-18T08:24:02;8.10;;;3.17;;
4986;SDS011;12674;51.500;7.552;2022-11-18T08:26:06;9.23;;;4.00;;
4986;SDS011;12674;51.500;7.552;2022-11-18T08:28:10;10.30;;;3.27;;
4986;SDS011;12674;51.500;7.552;2022-11-18T08:30:13;11.03;;;3.50;;
4986;SDS011;12674;51.500;7.552;2022-11-18T08:32:16;8.90;;;3.53;;
4986;SDS011;12674;51.500;7.552;2022-11-18T08:34:20;9.40;;;3.60;;
4986;SDS011;12674;51.500;7.552;2022-11-18T08:36:25;12.40;;;3.80;;
4986;SDS011;12674;51.500;7.552;2022-11-18T08:38:29;10.60;;;3.70;;
4986;SDS011;12674;51.500;7.552;2022-11-18T08:40:32;11.67;;;4.97;;
4986;SDS011;12674;51.500;7.552;2022-11-18T08:42:35;8.87;;;4.00;;
4986;SDS011;12674;51.500;7.552;2022-11-18T08:44:38;9.90;;;4.27;;
4986;SDS011;12674;51.500;7.552;2022-11-18T08:46:41;17.53;;;4.03;;
4986;SDS011;12674;51.500;7.552;2022-11-18T08:48:45;6.03;;;3.43;;
4986;SDS011;12674;51.500;7.552;2022-11-18T08:50:48;9.90;;;3.90;;
4986;SDS011;12674;51.500;7.552;2022-11-18T08:52:53;11.50;;;4.00;;
4986;SDS011;12674;51.500;7.552;2022-11-18T08:54:56;11.03;;;4.17;;
4986;SDS011;12674;51.500;7.552;2022-11-18T08:56:59;8.43;;;4.43;;
4986;SDS011;12674;51.500;7.552;2022-11-18T08:59:02;8.80;;;3.90;;
4986;SDS011;12674;51.500;7.552;2022-11-18T09:01:05;15.10;;;4.40;;
4986;SDS011;12674;51.500;7.552;2022-11-18T09:03:08;15.40;;;4.53;;
4986;SDS011;12674;51.500;7.552;2022-11-18T09:05:11;5.93;;;3.90;;
4986;SDS011;12674;51.500;7.552;2022-11-18T09:07:14;14.63;;;3.80;;
4986;SDS011;12674;51.500;7.552;2022-11-18T09:09:19;9.20;;;4.33;;
4986;SDS011;12674;51.500;7.552;2022-11-18T09:11:23;5.90;;;4.43;;
4986;SDS011;12674;51.500;7.552;2022-11-18T09:13:27;12.13;;;4.43;;
4986;SDS011;12674;51.500;7.552;2022-11-18T09:15:50;9.40;;;4.40;;
4986;SDS011;12674;51.500;7.552;2022-11-18T09:17:53;7.73;;;4.33;;
4986;SDS011;12674;51.500;7.552;2022-11-18T09:19:57;15.33;;;4.60;;
4986;SDS011;12674;51.500;7.552;2022-11-18T09:22:00;8.10;;;3.83;;
4986;SDS011;12674;51.500;7.552;2022-11-18T09:24:04;12.37;;;4.20;;
4986;SDS011;12674;51.500;7.552;2022-11-18T09:26:09;10.50;;;4.33;;
4986;SDS011;12674;51.500;7.552;2022-11-18T09:28:13;10.27;;;3.90;;
4986;SDS011;12674;51.500;7.552;2022-11-18T09:30:16;9.60;;;4.47;;
4986;SDS011;12674;51.500;7.552;2022-11-18T09:32:19;7.73;;;4.00;;
4986;SDS011;12674;51.500;7.552;2022-11-18T09:34:22;9.87;;;4.30;;
4986;SDS011;12674;51.500;7.552;2022-11-18T09:36:26;10.93;;;4.43;;
4986;SDS011;12674;51.500;7.552;2022-11-18T09:38:29;5.40;;;3.60;;
4986;SDS011;12674;51.500;7.552;2022-11-18T09:40:32;12.97;;;4.60;;
4986;SDS011;12674;51.500;7.552;2022-11-18T09:42:40;7.47;;;3.60;;
4986;SDS011;12674;51.500;7.552;2022-11-18T09:44:51;8.90;;;4.80;;
4986;SDS011;12674;51.500;7.552;2022-11-18T09:47:02;12.47;;;4.30;;
4986;SDS011;12674;51.500;7.552;2022-11-18T09:49:10;9.73;;;3.70;;
4986;SDS011;12674;51.500;7.552;2022-11-18T09:51:16;9.10;;;4.77;;
4986;SDS011;12674;51.500;7.552;2022-11-18T09:53:20;11.70;;;4.77;;
4986;SDS011;12674;51.500;7.552;2022-11-18T09:55:23;12.73;;;3.90;;
4986;SDS011;12674;51.500;7.552;2022-11-18T09:57:28;9.93;;;5.13;;
4986;SDS011;12674;51.500;7.552;2022-11-18T09:59:38;9.23;;;4.30;;
4986;SDS011;12674;51.500;7.552;2022-11-18T10:01:41;19.30;;;5.03;;
4986;SDS011;12674;51.500;7.552;2022-11-18T10:03:44;9.10;;;4.13;;
4986;SDS011;12674;51.500;7.552;2022-11-18T10:05:48;12.00;;;4.43;;
4986;SDS011;12674;51.500;7.552;2022-11-18T10:07:58;7.70;;;4.20;;
4986;SDS011;12674;51.500;7.552;2022-11-18T10:10:08;9.10;;;4.03;;
4986;SDS011;12674;51.500;7.552;2022-11-18T10:12:18;13.00;;;4.17;;
4986;SDS011;12674;51.500;7.552;2022-11-18T10:14:27;10.73;;;4.03;;
4986;SDS011;12674;51.500;7.552;2022-11-18T10:16:42;14.00;;;5.60;;
4986;SDS011;12674;51.500;7.552;2022-11-18T10:18:50;9.23;;;4.43;;
4986;SDS011;12674;51.500;7.552;2022-11-18T10:21:03;12.97;;;5.00;;
4986;SDS011;12674;51.500;7.552;2022-11-18T10:23:11;16.60;;;5.23;;
4986;SDS011;12674;51.500;7.552;2022-11-18T10:25:17;12.70;;;5.10;;
4986;SDS011;12674;51.500;7.552;2022-11-18T10:27:20;8.33;;;5.30;;
4986;SDS011;12674;51.500;7.552;2022-11-18T10:29:24;14.50;;;4.93;;
4986;SDS011;12674;51.500;7.552;2022-11-18T10:31:27;15.97;;;4.80;;
4986;SDS011;12674;51.500;7.552;2022-11-18T10:33:32;11.63;;;4.93;;
4986;SDS011;12674;51.500;7.552;2022-11-18T10:35:35;8.73;;;4.93;;
4986;SDS011;12674;51.500;7.552;2022-11-18T10:37:39;9.50;;;4.00;;
4986;SDS011;12674;51.500;7.552;2022-11-18T10:40:03;15.90;;;5.37;;
4986;SDS011;12674;51.500;7.552;2022-11-18T10:42:09;5.40;;;4.00;;
4986;SDS011;12674;51.500;7.552;2022-11-18T10:44:32;8.10;;;5.03;;
4986;SDS011;12674;51.500;7.552;2022-11-18T10:46:37;9.73;;;4.73;;
4986;SDS011;12674;51.500;7.552;2022-11-18T10:48:41;8.57;;;4.50;;
4986;SDS011;12674;51.500;7.552;2022-11-18T10:50:44;8.40;;;4.27;;
4986;SDS011;12674;51.500;7.552;2022-11-18T10:52:56;11.73;;;3.87;;
4986;SDS011;12674;51.500;7.552;2022-11-18T10:55:04;7.90;;;5.37;;
4986;SDS011;12674;51.500;7.552;2022-11-18T10:57:13;10.20;;;4.87;;
4986;SDS011;12674;51.500;7.552;2022-11-18T10:59:27;13.20;;;5.40;;
4986;SDS011;12674;51.500;7.552;2022-11-18T11:01:32;13.30;;;4.87;;
4986;SDS011;12674;51.500;7.552;2022-11-18T11:03:36;6.50;;;4.40;;
4986;SDS011;12674;51.500;7.552;2022-11-18T11:05:41;8.70;;;3.90;;
4986;SDS011;12674;51.500;7.552;2022-11-18T11:07:44;6.20;;;4.00;;
4986;SDS011;12674;51.500;7.552;2022-11-18T11:09:51;13.47;;;4.23;;
4986;SDS011;12674;51.500;7.552;2022-11-18T11:12:02;6.93;;;3.63;;
4986;SDS011;12674;51.500;7.552;2022-11-18T11:14:13;13.10;;;3.97;;
4986;SDS011;12674;51.500;7.552;2022-11-18T11:16:21;11.03;;;3.80;;
4986;SDS011;12674;51.500;7.552;2022-11-18T11:18:27;7.07;;;3.60;;
4986;SDS011;12674;51.500;7.552;2022-11-18T11:20:45;8.63;;;3.50;;
4986;SDS011;12674;51.500;7.552;2022-11-18T11:22:48;7.93;;;4.07;;
4986;SDS011;12674;51.500;7.552;2022-11-18T11:24:52;12.10;;;3.63;;
4986;SDS011;12674;51.500;7.552;2022-11-18T11:26:57;8.90;;;3.77;;
4986;SDS011;12674;51.500;7.552;2022-11-18T11:29:37;11.80;;;3.30;;
4986;SDS011;12674;51.500;7.552;2022-11-18T11:32:03;14.03;;;3.40;;
4986;SDS011;12674;51.500;7.552;2022-11-18T11:34:14;6.33;;;3.20;;
4986;SDS011;12674;51.500;7.552;2022-11-18T11:36:26;9.63;;;3.40;;
4986;SDS011;12674;51.500;7.552;2022-11-18T11:38:36;10.63;;;3.97;;
4986;SDS011;12674;51.500;7.552;2022-11-18T11:40:49;14.17;;;3.57;;
4986;SDS011;12674;51.500;7.552;2022-11-18T11:43:03;10.10;;;3.57;;
4986;SDS011;12674;51.500;7.552;2022-11-18T11:45:16;18.10;;;3.53;;
4986;SDS011;12674;51.500;7.552;2022-11-18T11:47:22;13.50;;;3.60;;
4986;SDS011;12674;51.500;7.552;2022-11-18T11:49:48;10.90;;;2.60;;
4986;SDS011;12674;51.500;7.552;2022-11-18T11:51:56;8.53;;;2.77;;
4986;SDS011;12674;51.500;7.552;2022-11-18T11:56:37;7.70;;;3.37;;
4986;SDS011;12674;51.500;7.552;2022-11-18T11:58:46;11.17;;;3.33;;
4986;SDS011;12674;51.500;7.552;2022-11-18T12:01:01;8.13;;;2.93;;
4986;SDS011;12674;51.500;7.552;2022-11-18T12:03:13;7.07;;;3.20;;
4986;SDS011;12674;51.500;7.552;2022-11-18T12:05:36;10.00;;;3.40;;
4986;SDS011;12674;51.500;7.552;2022-11-18T12:07:44;12.13;;;3.10;;
4986;SDS011;12674;51.500;7.552;2022-11-18T12:12:19;7.03;;;2.97;;
4986;SDS011;12674;51.500;7.552;2022-11-18T12:14:36;17.13;;;3.17;;
4986;SDS011;12674;51.500;7.552;2022-11-18T12:16:44;12.33;;;3.47;;
4986;SDS011;12674;51.500;7.552;2022-11-18T12:18:52;12.70;;;3.90;;
4986;SDS011;12674;51.500;7.552;2022-11-18T12:20:58;11.20;;;3.10;;
4986;SDS011;12674;51.500;7.552;2022-11-18T12:23:09;16.67;;;3.30;;
4986;SDS011;12674;51.500;7.552;2022-11-18T12:27:56;14.20;;;4.30;;
4986;SDS011;12674;51.500;7.552;2022-11-18T12:30:00;11.63;;;3.00;;
4986;SDS011;12674;51.500;7.552;2022-11-18T12:32:13;6.43;;;2.60;;
4986;SDS011;12674;51.500;7.552;2022-11-18T12:34:28;7.27;;;2.20;;
4986;SDS011;12674;51.500;7.552;2022-11-18T12:36:34;8.27;;;2.60;;
4986;SDS011;12674;51.500;7.552;2022-11-18T12:38:40;9.90;;;2.13;;
4986;SDS011;12674;51.500;7.552;2022-11-18T12:40:43;11.23;;;2.60;;
4986;SDS011;12674;51.500;7.552;2022-11-18T12:42:53;8.73;;;2.20;;
4986;SDS011;12674;51.500;7.552;2022-11-18T12:47:55;7.70;;;2.60;;
4986;SDS011;12674;51.500;7.552;2022-11-18T12:50:08;5.10;;;2.13;;
4986;SDS011;12674;51.500;7.552;2022-11-18T12:54:49;10.23;;;2.33;;
4986;SDS011;12674;51.500;7.552;2022-11-18T12:56:52;9.23;;;2.60;;
4986;SDS011;12674;51.500;7.552;2022-11-18T12:58:56;7.83;;;2.07;;
4986;SDS011;12674;51.500;7.552;2022-11-18T13:01:04;6.68;;;1.92;;